Time;durP1;ratioP1;P1;durP2;ratioP2;P2;SDS_P1;SDS_P2;PMS_P1;PMS_P2;Temp;Humidity;BMP_temperature;BMP_pressure;BME280_temperature;BME280_humidity;BME280_pressure;Samples;Min_cycle;Max_cycle;Signal;HPM_P1;HPM_P2
2022/05/13 00:02:24;;;;;;;0.52;0.52;;;13.90;99.90;;;;;;5032472;28;20127;-71
2022/05/13 00:04:49;;;;;;;0.10;0.10;;;14.00;99.90;;;;;;5029101;28;20045;-71
2022/05/13 00:07:16;;;;;;;2.92;1.38;;;14.00;99.90;;;;;;5012660;28;20129;-71
2022/05/13 00:09:56;;;;;;;0.77;0.30;;;14.00;99.90;;;;;;5011550;28;20088;-71
2022/05/13 00:12:30;;;;;;;0.00;0.00;;;14.00;99.90;;;;;;5012986;28;20053;-71
2022/05/13 00:14:55;;;;;;;;;;;14.00;99.90;;;;;;5015837;28;20152;-72
2022/05/13 00:17:22;;;;;;;4.95;1.85;;;14.00;99.90;;;;;;5020434;28;20027;-72
2022/05/13 00:19:48;;;;;;;0.00;0.00;;;14.00;99.90;;;;;;5012231;28;20096;-72
2022/05/13 00:22:14;;;;;;;0.10;0.10;;;14.00;99.90;;;;;;5011154;28;20087;-72
2022/05/13 00:24:40;;;;;;;0.00;0.00;;;14.00;99.90;;;;;;5009274;28;20053;-71
2022/05/13 00:27:06;;;;;;;1.27;1.17;;;14.00;99.90;;;;;;5012438;28;20097;-71
2022/05/13 00:29:32;;;;;;;0.10;0.10;;;14.00;99.90;;;;;;5012694;28;20042;-71
2022/05/13 00:31:58;;;;;;;0.00;0.00;;;14.00;99.90;;;;;;5008624;28;20060;-71
2022/05/13 00:34:24;;;;;;;0.10;0.10;;;13.90;99.90;;;;;;5016453;28;20034;-71
2022/05/13 00:36:50;;;;;;;0.10;0.10;;;13.90;99.90;;;;;;5030963;28;20057;-72
2022/05/13 00:39:16;;;;;;;0.10;0.10;;;13.90;99.90;;;;;;5028653;28;20041;-71
2022/05/13 00:41:42;;;;;;;0.32;0.32;;;13.90;99.90;;;;;;5027199;28;20054;-72
2022/05/13 00:44:07;;;;;;;0.45;0.45;;;13.90;99.90;;;;;;5029899;28;20056;-71
2022/05/13 00:46:33;;;;;;;2.15;0.50;;;13.90;99.90;;;;;;5029616;28;20504;-71
2022/05/13 00:49:01;;;;;;;1.17;0.73;;;13.90;99.90;;;;;;5028616;28;20049;-72
2022/05/13 00:51:35;;;;;;;0.00;0.00;;;13.80;99.90;;;;;;5030869;28;20041;-72
2022/05/13 00:54:02;;;;;;;0.25;0.25;;;13.80;99.90;;;;;;5029748;28;20073;-71
2022/05/13 00:56:28;;;;;;;0.20;0.20;;;13.80;99.90;;;;;;5030423;28;20060;-71
2022/05/13 00:58:57;;;;;;;0.28;0.28;;;13.80;99.90;;;;;;5013510;28;20050;-71
2022/05/13 01:01:23;;;;;;;0.47;0.47;;;13.80;99.90;;;;;;5011373;28;20469;-71
2022/05/13 01:03:50;;;;;;;4.80;0.63;;;13.80;99.90;;;;;;5011866;28;20061;-72
2022/05/13 01:06:22;;;;;;;0.10;0.10;;;13.80;99.90;;;;;;5007984;28;20037;-71
2022/05/13 01:08:49;;;;;;;0.00;0.00;;;13.80;99.90;;;;;;5011838;28;20046;-71
2022/05/13 01:11:17;;;;;;;0.10;0.10;;;13.80;99.90;;;;;;5011646;28;20576;-71
2022/05/13 01:13:51;;;;;;;0.10;0.10;;;13.80;99.90;;;;;;5010349;28;20049;-71
2022/05/13 01:16:17;;;;;;;0.00;0.00;;;13.80;99.90;;;;;;5015790;28;20042;-71
2022/05/13 01:18:43;;;;;;;0.00;0.00;;;13.80;99.90;;;;;;5011431;28;20040;-71
2022/05/13 01:21:13;;;;;;;0.32;0.32;;;13.80;99.90;;;;;;5011464;28;20137;-71
2022/05/13 01:23:44;;;;;;;0.00;0.00;;;13.80;99.90;;;;;;5011506;28;20495;-71
2022/05/13 01:26:13;;;;;;;0.25;0.25;;;13.70;99.90;;;;;;5011586;28;20049;-71
2022/05/13 01:28:47;;;;;;;0.10;0.10;;;13.70;99.90;;;;;;5013795;28;20049;-71
2022/05/13 01:31:27;;;;;;;0.00;0.00;;;13.70;99.90;;;;;;5030845;28;20062;-71
2022/05/13 01:33:53;;;;;;;0.10;0.10;;;13.70;99.90;;;;;;5029406;28;20049;-71
2022/05/13 01:36:19;;;;;;;0.10;0.10;;;13.70;99.90;;;;;;5025725;28;20037;-71
2022/05/13 01:38:44;;;;;;;0.10;0.10;;;13.70;99.90;;;;;;5011260;28;20046;-71
2022/05/13 01:41:12;;;;;;;0.20;0.20;;;13.70;99.90;;;;;;5010514;28;20111;-71
2022/05/13 01:43:40;;;;;;;0.45;0.30;;;13.70;99.90;;;;;;5008437;28;20056;-71
2022/05/13 01:46:06;;;;;;;0.00;0.00;;;13.70;99.90;;;;;;5010729;28;20038;-71
2022/05/13 01:48:32;;;;;;;0.10;0.10;;;13.70;99.90;;;;;;5017371;28;20053;-71
2022/05/13 01:50:58;;;;;;;0.15;0.15;;;13.70;99.90;;;;;;5029028;28;20049;-72
2022/05/13 01:53:24;;;;;;;0.10;0.10;;;13.70;99.90;;;;;;5030419;28;20046;-71
2022/05/13 01:55:49;;;;;;;0.10;0.10;;;13.70;99.90;;;;;;5015701;28;20120;-71
2022/05/13 01:58:18;;;;;;;0.38;0.38;;;13.70;99.90;;;;;;5010557;28;20065;-71
2022/05/13 02:00:45;;;;;;;0.10;0.10;;;13.70;99.90;;;;;;5010763;28;20045;-72
2022/05/13 02:05:56;;;;;;;0.55;0.55;;;13.70;99.90;;;;;;5030943;28;20049;-72
2022/05/13 02:08:22;;;;;;;2.42;0.90;;;13.70;99.90;;;;;;5021471;28;20050;-72
2022/05/13 02:10:48;;;;;;;0.15;0.15;;;13.70;99.90;;;;;;5010288;28;20049;-72
2022/05/13 02:13:14;;;;;;;0.10;0.10;;;13.60;99.90;;;;;;5010828;28;20394;-72
2022/05/13 02:15:40;;;;;;;0.10;0.10;;;13.60;99.90;;;;;;5019199;28;20053;-72
2022/05/13 02:18:06;;;;;;;0.20;0.20;;;13.60;99.90;;;;;;5030027;28;20056;-73
2022/05/13 02:20:32;;;;;;;1.10;0.45;;;13.60;99.90;;;;;;5030344;28;20041;-72
2022/05/13 02:22:58;;;;;;;0.10;0.10;;;13.60;99.90;;;;;;5029795;28;20417;-72
2022/05/13 02:25:24;;;;;;;1.00;0.88;;;13.60;99.90;;;;;;5026768;28;20453;-73
2022/05/13 02:27:49;;;;;;;0.00;0.00;;;13.60;99.90;;;;;;5030503;28;20041;-72
2022/05/13 02:30:15;;;;;;;0.10;0.10;;;13.60;99.90;;;;;;5029478;28;20497;-73
2022/05/13 02:32:40;;;;;;;0.20;0.20;;;13.50;99.90;;;;;;5026635;28;20110;-73
2022/05/13 02:35:07;;;;;;;1.20;1.10;;;13.50;99.90;;;;;;5017721;28;20398;-73
2022/05/13 02:37:32;;;;;;;0.10;0.10;;;13.50;99.90;;;;;;5008435;28;20050;-73
2022/05/13 02:39:58;;;;;;;0.65;0.55;;;13.50;99.90;;;;;;5010566;28;20042;-74
2022/05/13 02:42:24;;;;;;;0.10;0.10;;;13.50;99.90;;;;;;5009261;28;20061;-73
2022/05/13 02:44:50;;;;;;;2.30;1.48;;;13.50;99.90;;;;;;5008735;28;20045;-73
2022/05/13 02:47:15;;;;;;;0.10;0.10;;;13.50;99.90;;;;;;5010196;28;20579;-73
2022/05/13 02:49:41;;;;;;;0.75;0.57;;;13.50;99.90;;;;;;5010466;28;20038;-74
2022/05/13 02:52:11;;;;;;;1.75;1.63;;;13.50;99.90;;;;;;5009727;28;20255;-74
2022/05/13 02:54:38;;;;;;;0.03;0.03;;;13.50;99.90;;;;;;5028267;28;20333;-73
2022/05/13 02:57:05;;;;;;;0.20;0.20;;;13.50;99.90;;;;;;5030087;28;20068;-74
2022/05/13 02:59:30;;;;;;;0.10;0.10;;;13.50;99.90;;;;;;5023716;28;20104;-73
2022/05/13 03:01:56;;;;;;;0.17;0.17;;;13.50;99.90;;;;;;5014876;28;20047;-74
2022/05/13 03:04:22;;;;;;;0.10;0.10;;;13.50;99.90;;;;;;5032546;28;20455;-74
2022/05/13 03:06:48;;;;;;;0.10;0.10;;;13.50;99.90;;;;;;5018402;28;20054;-74
2022/05/13 03:09:14;;;;;;;0.00;0.00;;;13.50;99.90;;;;;;5012730;28;20042;-74
2022/05/13 03:11:39;;;;;;;0.10;0.10;;;13.50;99.90;;;;;;5014124;28;20092;-75
2022/05/13 03:14:05;;;;;;;1.65;1.05;;;13.50;99.90;;;;;;5013856;28;20105;-75
2022/05/13 03:16:30;;;;;;;0.10;0.10;;;13.50;99.90;;;;;;5012311;28;20665;-74
2022/05/13 03:18:58;;;;;;;0.20;0.20;;;13.50;99.90;;;;;;5013981;28;20045;-75
2022/05/13 03:21:25;;;;;;;0.00;0.00;;;13.50;99.90;;;;;;5013571;28;20046;-74
2022/05/13 03:23:51;;;;;;;0.00;0.00;;;13.50;99.90;;;;;;5014183;28;20048;-74
2022/05/13 03:26:20;;;;;;;0.80;0.80;;;13.50;99.90;;;;;;5010092;28;20145;-74
2022/05/13 03:28:45;;;;;;;2.28;0.70;;;13.60;99.90;;;;;;5013862;28;20046;-74
2022/05/13 03:31:12;;;;;;;1.00;1.00;;;13.60;99.90;;;;;;5013634;28;20052;-74
2022/05/13 03:33:38;;;;;;;1.38;0.85;;;13.60;99.90;;;;;;5010334;28;20054;-74
2022/05/13 03:36:05;;;;;;;0.10;0.10;;;13.60;99.90;;;;;;5011881;28;20096;-74
2022/05/13 03:38:30;;;;;;;0.00;0.00;;;13.60;99.90;;;;;;5011809;28;20061;-74
2022/05/13 03:40:56;;;;;;;0.10;0.10;;;13.60;99.90;;;;;;5012586;28;20038;-74
2022/05/13 03:43:22;;;;;;;1.10;0.65;;;13.60;99.90;;;;;;5012889;28;20482;-73
2022/05/13 03:45:47;;;;;;;0.52;0.52;;;13.50;99.90;;;;;;5011448;28;20064;-73
2022/05/13 03:48:13;;;;;;;0.10;0.10;;;13.60;99.90;;;;;;5031683;28;20060;-74
2022/05/13 03:50:43;;;;;;;5.53;0.95;;;13.50;99.90;;;;;;5032840;28;20046;-73
2022/05/13 03:53:10;;;;;;;0.20;0.20;;;13.50;99.90;;;;;;5033153;28;20052;-73
2022/05/13 03:55:36;;;;;;;0.05;0.05;;;13.60;99.90;;;;;;5030159;28;20047;-74
2022/05/13 03:58:02;;;;;;;0.10;0.10;;;13.60;99.90;;;;;;5031226;28;20120;-74
2022/05/13 04:00:28;;;;;;;0.10;0.10;;;13.60;99.90;;;;;;5031437;28;20065;-73
2022/05/13 04:02:54;;;;;;;0.17;0.17;;;13.50;99.90;;;;;;5032657;28;20038;-73
2022/05/13 04:10:48;;;;;;;0.10;0.10;;;13.60;99.90;;;;;;5033079;28;20092;-74
2022/05/13 04:16:04;;;;;;;2.70;0.73;;;13.60;99.90;;;;;;5010650;28;20046;-74
2022/05/13 04:18:44;;;;;;;0.00;0.00;;;13.60;99.90;;;;;;5012860;28;20045;-74
2022/05/13 04:21:25;;;;;;;0.20;0.20;;;13.60;99.90;;;;;;5009841;28;20069;-74
2022/05/13 04:23:53;;;;;;;0.10;0.10;;;13.50;99.90;;;;;;5012302;28;20069;-73
2022/05/13 04:26:19;;;;;;;0.05;0.05;;;13.60;99.90;;;;;;5011295;28;20405;-73
2022/05/13 04:28:48;;;;;;;0.10;0.10;;;13.50;99.90;;;;;;5011593;28;20124;-73
2022/05/13 04:31:17;;;;;;;0.10;0.10;;;13.60;99.90;;;;;;5011880;28;20084;-73
2022/05/13 04:33:43;;;;;;;2.08;1.05;;;13.60;99.90;;;;;;5012355;28;20129;-73
2022/05/13 04:36:09;;;;;;;0.00;0.00;;;13.60;99.90;;;;;;5012452;28;20050;-73
2022/05/13 04:38:35;;;;;;;0.10;0.10;;;13.60;99.90;;;;;;5023943;28;20045;-73
2022/05/13 04:42:49;;;;;;;0.00;0.00;;;13.60;99.90;;;;;;5031958;28;20084;-73
2022/05/13 04:43:47;;;;;;;0.10;0.10;;;13.60;99.90;;;;;;5027978;28;20045;-73
2022/05/13 04:46:13;;;;;;;0.45;0.45;;;13.60;99.90;;;;;;5031715;28;20037;-73
2022/05/13 04:48:38;;;;;;;0.40;0.32;;;13.60;99.90;;;;;;5030522;28;20184;-73
2022/05/13 04:51:04;;;;;;;0.30;0.30;;;13.60;99.90;;;;;;5029071;28;20120;-73
2022/05/13 04:53:35;;;;;;;0.10;0.10;;;13.60;99.90;;;;;;5031715;28;20065;-73
2022/05/13 04:56:03;;;;;;;0.10;0.10;;;13.60;99.90;;;;;;5028564;28;20167;-73
2022/05/13 04:58:29;;;;;;;0.10;0.10;;;13.60;99.90;;;;;;5009549;28;20054;-73
2022/05/13 05:00:56;;;;;;;0.65;0.65;;;13.60;99.90;;;;;;5012205;28;20048;-73
2022/05/13 05:03:23;;;;;;;0.10;0.10;;;13.70;99.90;;;;;;5010390;28;20509;-73
2022/05/13 05:05:49;;;;;;;0.03;0.03;;;13.70;99.90;;;;;;5010208;28;20041;-73
2022/05/13 05:08:15;;;;;;;0.00;0.00;;;13.70;99.90;;;;;;5031203;28;20474;-73
2022/05/13 05:10:42;;;;;;;0.10;0.10;;;13.60;99.90;;;;;;5023725;28;20038;-73
2022/05/13 05:13:08;;;;;;;0.32;0.32;;;13.70;99.90;;;;;;5009826;28;20048;-73
2022/05/13 05:15:38;;;;;;;0.00;0.00;;;13.70;99.90;;;;;;5012749;28;20046;-73
2022/05/13 05:18:04;;;;;;;0.10;0.10;;;13.70;99.90;;;;;;5012056;28;20052;-72
2022/05/13 05:20:30;;;;;;;0.10;0.10;;;13.70;99.90;;;;;;5013716;28;20042;-73
2022/05/13 05:22:55;;;;;;;0.10;0.10;;;13.70;99.90;;;;;;5031189;28;20046;-73
2022/05/13 05:25:22;;;;;;;0.00;0.00;;;13.70;99.90;;;;;;5029345;28;20056;-73
2022/05/13 05:27:48;;;;;;;0.10;0.10;;;13.70;99.90;;;;;;5030778;28;20046;-73
2022/05/13 05:30:15;;;;;;;0.40;0.40;;;13.70;99.90;;;;;;5012214;28;20793;-72
2022/05/13 05:32:41;;;;;;;0.10;0.10;;;13.70;99.90;;;;;;5010454;28;20042;-72
2022/05/13 05:35:11;;;;;;;0.10;0.10;;;13.70;99.90;;;;;;5025471;28;20045;-72
2022/05/13 05:37:36;;;;;;;0.30;0.30;;;13.70;99.90;;;;;;5031310;28;20075;-72
2022/05/13 05:40:03;;;;;;;0.10;0.10;;;13.70;99.90;;;;;;5029206;28;20056;-72
2022/05/13 05:42:29;;;;;;;0.08;0.08;;;13.70;99.90;;;;;;5016169;28;20085;-71
2022/05/13 05:44:55;;;;;;;2.85;1.08;;;13.70;99.90;;;;;;5009917;28;20046;-72
2022/05/13 05:47:22;;;;;;;0.00;0.00;;;13.70;99.90;;;;;;5010183;28;20096;-71
2022/05/13 05:49:48;;;;;;;0.30;0.30;;;13.70;99.90;;;;;;5008847;28;20398;-71
2022/05/13 05:52:13;;;;;;;0.10;0.10;;;13.70;99.90;;;;;;5010903;28;20056;-71
2022/05/13 05:57:23;;;;;;;0.30;0.30;;;13.80;99.90;;;;;;5030286;28;20053;-71
2022/05/13 05:59:49;;;;;;;4.65;0.47;;;13.80;99.90;;;;;;5030597;28;20053;-71
2022/05/13 06:02:16;;;;;;;0.10;0.10;;;13.80;99.90;;;;;;5029870;28;20041;-71
2022/05/13 06:04:41;;;;;;;0.30;0.30;;;13.80;99.90;;;;;;5028210;28;20045;-71
2022/05/13 06:07:13;;;;;;;0.28;0.28;;;13.90;99.90;;;;;;5030479;28;20068;-71
2022/05/13 06:09:40;;;;;;;0.00;0.00;;;13.90;99.90;;;;;;5014971;28;20052;-71
2022/05/13 06:12:07;;;;;;;2.10;1.30;;;13.90;99.90;;;;;;5010787;28;20048;-71
2022/05/13 06:14:33;;;;;;;0.10;0.10;;;13.90;99.90;;;;;;5011472;28;20083;-71
2022/05/13 06:16:59;;;;;;;0.00;0.00;;;13.90;99.90;;;;;;5015566;28;20065;-71
2022/05/13 06:19:24;;;;;;;0.00;0.00;;;13.90;99.90;;;;;;5017172;28;20413;-71
2022/05/13 06:21:51;;;;;;;0.10;0.10;;;13.90;99.90;;;;;;5025437;28;20049;-71
2022/05/13 06:24:18;;;;;;;0.00;0.00;;;13.90;99.90;;;;;;5029098;28;20107;-71
2022/05/13 06:26:45;;;;;;;0.00;0.00;;;14.00;99.90;;;;;;5016762;28;20116;-71
2022/05/13 06:29:11;;;;;;;0.38;0.38;;;14.00;99.90;;;;;;5009551;28;20041;-71
2022/05/13 06:31:37;;;;;;;0.10;0.10;;;14.00;99.90;;;;;;5009102;28;20453;-71
2022/05/13 06:34:03;;;;;;;0.00;0.00;;;14.00;99.90;;;;;;5010981;28;20046;-71
2022/05/13 06:36:31;;;;;;;0.82;0.50;;;14.00;99.90;;;;;;5009750;28;20049;-71
2022/05/13 06:38:57;;;;;;;0.10;0.10;;;14.10;99.90;;;;;;5012065;28;20038;-71
2022/05/13 06:41:24;;;;;;;0.08;0.08;;;14.10;99.90;;;;;;5012981;28;20081;-71
2022/05/13 06:43:50;;;;;;;0.38;0.38;;;14.20;99.90;;;;;;5031159;28;20397;-71
2022/05/13 06:46:15;;;;;;;0.22;0.20;;;14.20;99.90;;;;;;5034032;28;20489;-71
2022/05/13 06:48:41;;;;;;;0.10;0.10;;;14.20;99.90;;;;;;5034332;28;20042;-71
2022/05/13 06:51:07;;;;;;;0.20;0.20;;;14.20;99.90;;;;;;5029312;28;20438;-71
2022/05/13 06:53:32;;;;;;;0.00;0.00;;;14.30;99.90;;;;;;5034113;28;20064;-71
2022/05/13 06:55:58;;;;;;;0.10;0.10;;;14.30;99.90;;;;;;5018468;28;20046;-71
2022/05/13 06:58:24;;;;;;;0.10;0.10;;;14.40;99.90;;;;;;5013531;28;20058;-71
2022/05/13 07:00:50;;;;;;;0.10;0.10;;;14.40;99.90;;;;;;5014243;28;20049;-71
2022/05/13 07:03:17;;;;;;;0.10;0.10;;;14.50;99.90;;;;;;5014732;28;20030;-71
2022/05/13 07:05:43;;;;;;;0.00;0.00;;;14.50;99.90;;;;;;5012703;28;20107;-71
2022/05/13 07:08:09;;;;;;;0.00;0.00;;;14.50;99.90;;;;;;5014147;28;20485;-71
2022/05/13 07:10:35;;;;;;;0.00;0.00;;;14.60;99.90;;;;;;5013012;28;20046;-71
2022/05/13 07:13:04;;;;;;;0.00;0.00;;;14.60;99.90;;;;;;5013897;28;20122;-71
2022/05/13 07:15:30;;;;;;;0.20;0.20;;;14.70;99.90;;;;;;5030066;28;20521;-70
2022/05/13 07:17:56;;;;;;;0.10;0.10;;;14.70;99.90;;;;;;5034141;28;20045;-71
2022/05/13 07:20:23;;;;;;;0.00;0.00;;;14.70;99.90;;;;;;5025059;28;20050;-71
2022/05/13 07:22:48;;;;;;;0.10;0.10;;;14.70;99.90;;;;;;5013659;28;20049;-71
2022/05/13 07:25:15;;;;;;;0.03;0.03;;;14.70;99.90;;;;;;5011380;28;20399;-71
2022/05/13 07:27:40;;;;;;;0.25;0.25;;;14.70;99.90;;;;;;5012505;28;20124;-71
2022/05/13 07:30:07;;;;;;;0.52;0.50;;;14.80;99.90;;;;;;5032559;28;20124;-71
2022/05/13 07:32:33;;;;;;;0.65;0.63;;;14.80;99.90;;;;;;5032412;28;20090;-71
2022/05/13 07:34:58;;;;;;;0.32;0.32;;;14.80;99.90;;;;;;5033370;28;20114;-71
2022/05/13 07:37:24;;;;;;;0.00;0.00;;;14.70;99.90;;;;;;5030788;28;20504;-71
2022/05/13 07:42:34;;;;;;;0.10;0.10;;;14.90;99.90;;;;;;5012952;28;20053;-71
2022/05/13 07:44:59;;;;;;;0.10;0.10;;;15.00;99.90;;;;;;5013514;28;20049;-71
2022/05/13 07:47:25;;;;;;;0.10;0.10;;;15.00;99.90;;;;;;5012524;28;20056;-71
2022/05/13 07:49:51;;;;;;;0.00;0.00;;;14.90;99.90;;;;;;5013520;28;20046;-71
2022/05/13 07:52:16;;;;;;;0.00;0.00;;;14.90;99.90;;;;;;5011568;28;20050;-71
2022/05/13 07:54:42;;;;;;;0.60;0.60;;;15.00;99.90;;;;;;5013831;28;20112;-71
2022/05/13 07:57:07;;;;;;;0.10;0.10;;;15.10;99.90;;;;;;5032099;28;20049;-71
2022/05/13 08:00:24;;;;;;;0.22;0.22;;;15.10;99.90;;;;;;5025547;28;20053;-71
2022/05/13 08:02:20;;;;;;;0.05;0.05;;;15.20;99.90;;;;;;5022729;28;20045;-71
2022/05/13 08:04:45;;;;;;;0.10;0.10;;;15.20;99.90;;;;;;5033093;28;20055;-71
2022/05/13 08:07:11;;;;;;;0.10;0.10;;;15.10;99.90;;;;;;5032734;28;20049;-71
2022/05/13 08:09:36;;;;;;;0.00;0.00;;;15.20;99.90;;;;;;5030023;28;20404;-71
2022/05/13 08:12:04;;;;;;;0.00;0.00;;;15.30;99.90;;;;;;5030899;28;20081;-71
2022/05/13 08:14:29;;;;;;;0.00;0.00;;;15.50;99.90;;;;;;5022826;28;20050;-71
2022/05/13 08:16:55;;;;;;;0.40;0.40;;;15.50;99.90;;;;;;5011324;28;20129;-70
2022/05/13 08:19:20;;;;;;;0.00;0.00;;;15.50;99.90;;;;;;5012502;28;20425;-70
2022/05/13 08:21:46;;;;;;;0.00;0.00;;;15.50;99.90;;;;;;5011429;28;20057;-70
2022/05/13 08:24:11;;;;;;;0.20;0.20;;;15.50;99.90;;;;;;5031786;28;20037;-70
2022/05/13 08:26:37;;;;;;;0.43;0.15;;;15.50;99.90;;;;;;5026265;28;20140;-70
2022/05/13 08:29:03;;;;;;;0.85;0.73;;;15.60;99.90;;;;;;5031379;28;20042;-70
2022/05/13 08:31:29;;;;;;;0.63;0.63;;;15.70;99.90;;;;;;5015015;28;20057;-70
2022/05/13 08:33:55;;;;;;;0.00;0.00;;;15.70;99.90;;;;;;5012542;28;20042;-70
2022/05/13 08:36:20;;;;;;;5.18;0.75;;;15.80;99.90;;;;;;5010960;28;20041;-70
2022/05/13 08:38:47;;;;;;;0.10;0.10;;;15.80;99.90;;;;;;5014479;28;20045;-70
2022/05/13 08:41:41;;;;;;;0.57;0.57;;;15.80;99.90;;;;;;5012202;28;20092;-70
2022/05/13 08:44:09;;;;;;;0.00;0.00;;;15.80;99.90;;;;;;5024486;28;20055;-70
2022/05/13 08:46:37;;;;;;;0.40;0.40;;;15.90;99.90;;;;;;5031495;28;20041;-70
2022/05/13 08:49:33;;;;;;;0.00;0.00;;;16.00;99.90;;;;;;5024381;28;20042;-70
2022/05/13 08:53:06;;;;;;;0.10;0.10;;;16.10;99.90;;;;;;5023772;28;20037;-70
2022/05/13 08:54:57;;;;;;;0.00;0.00;;;16.10;99.90;;;;;;5032206;28;20398;-69
2022/05/13 08:57:28;;;;;;;0.03;0.03;;;16.10;99.90;;;;;;5028904;28;20083;-70
2022/05/13 09:00:25;;;;;;;0.60;0.43;;;16.10;99.90;;;;;;5031088;28;20464;-70
2022/05/13 09:03:00;;;;;;;0.10;0.10;;;16.10;99.90;;;;;;5031614;28;20049;-70
2022/05/13 09:05:27;;;;;;;0.63;0.47;;;16.00;99.90;;;;;;5028761;28;20041;-70
2022/05/13 09:07:54;;;;;;;0.00;0.00;;;16.10;99.90;;;;;;5012164;28;20048;-70
2022/05/13 09:10:20;;;;;;;0.28;0.28;;;16.10;99.90;;;;;;5010511;28;20508;-70
2022/05/13 09:13:08;;;;;;;0.30;0.30;;;16.00;99.90;;;;;;5010008;28;20052;-68
2022/05/13 09:15:55;;;;;;;0.13;0.13;;;16.00;99.90;;;;;;5023599;28;20052;-69
2022/05/13 09:18:34;;;;;;;0.43;0.43;;;16.10;99.90;;;;;;5031024;28;20440;-69
2022/05/13 09:21:03;;;;;;;0.22;0.22;;;16.10;99.90;;;;;;5029392;28;20140;-69
2022/05/13 09:23:30;;;;;;;4.70;0.75;;;16.10;99.90;;;;;;5026486;28;20041;-69
2022/05/13 09:26:03;;;;;;;0.00;0.00;;;16.20;99.90;;;;;;5010659;28;20046;-69
2022/05/13 09:28:31;;;;;;;0.10;0.10;;;16.40;99.90;;;;;;5011433;28;20057;-69
2022/05/13 09:31:06;;;;;;;0.68;0.68;;;16.40;99.90;;;;;;5009132;28;20045;-69
2022/05/13 09:33:39;;;;;;;0.05;0.05;;;16.50;99.90;;;;;;5010476;28;20057;-69
2022/05/13 09:36:21;;;;;;;0.00;0.00;;;16.70;99.90;;;;;;5011303;28;20046;-68
2022/05/13 09:38:51;;;;;;;0.00;0.00;;;16.90;99.90;;;;;;5009468;28;20132;-69
2022/05/13 09:41:29;;;;;;;6.57;1.92;;;17.30;99.90;;;;;;5009971;28;20042;-68
2022/05/13 09:44:03;;;;;;;0.47;0.47;;;17.40;99.90;;;;;;5011013;28;20512;-69
2022/05/13 09:46:40;;;;;;;0.00;0.00;;;17.40;99.90;;;;;;5010781;28;20042;-68
2022/05/13 09:49:25;;;;;;;0.10;0.10;;;17.60;99.90;;;;;;5011047;28;20049;-68
2022/05/13 09:51:57;;;;;;;0.10;0.10;;;17.70;99.90;;;;;;5011413;28;20042;-68
2022/05/13 09:54:34;;;;;;;29.75;0.77;;;17.80;99.90;;;;;;5010345;28;20052;-68
2022/05/13 09:57:16;;;;;;;0.25;0.25;;;17.90;99.90;;;;;;5009622;28;20046;-68
2022/05/13 09:59:53;;;;;;;0.00;0.00;;;17.90;99.90;;;;;;5009399;28;20081;-68
2022/05/13 10:02:31;;;;;;;0.00;0.00;;;17.90;99.90;;;;;;5009484;28;20068;-68
2022/05/13 10:05:21;;;;;;;0.22;0.22;;;17.90;99.90;;;;;;5011060;28;20112;-68
2022/05/13 10:07:49;;;;;;;0.10;0.10;;;18.10;99.90;;;;;;5022707;28;20067;-68
2022/05/13 10:16:01;;;;;;;4.32;2.70;;;18.80;99.90;;;;;;5020703;28;20042;-67
2022/05/13 10:18:37;;;;;;;0.10;0.10;;;18.90;99.90;;;;;;5010475;28;20051;-68
2022/05/13 10:21:12;;;;;;;0.00;0.00;;;18.70;99.90;;;;;;5013088;28;20037;-68
2022/05/13 10:23:56;;;;;;;0.28;0.20;;;18.50;99.90;;;;;;5030002;28;20061;-68
2022/05/13 10:26:27;;;;;;;0.00;0.00;;;18.30;99.90;;;;;;5018800;28;20512;-67
2022/05/13 10:29:16;;;;;;;4.95;2.38;;;18.40;99.90;;;;;;5010067;28;20046;-67
2022/05/13 10:31:44;;;;;;;0.10;0.10;;;18.40;99.90;;;;;;5017360;28;20116;-67
2022/05/13 10:34:28;;;;;;;0.00;0.00;;;18.30;99.90;;;;;;5030007;28;20049;-67
2022/05/13 10:37:14;;;;;;;0.40;0.40;;;18.20;99.90;;;;;;5029446;28;20056;-68
2022/05/13 10:39:51;;;;;;;0.55;0.47;;;18.20;99.90;;;;;;5018763;28;20139;-68
2022/05/13 10:42:40;;;;;;;0.22;0.20;;;18.10;99.90;;;;;;5009151;28;20053;-67
2022/05/13 10:45:11;;;;;;;0.30;0.30;;;17.90;99.90;;;;;;5029466;28;20099;-67
2022/05/13 10:47:43;;;;;;;0.08;0.08;;;17.90;99.90;;;;;;5028748;28;20096;-68
2022/05/13 10:50:16;;;;;;;0.17;0.17;;;17.80;99.90;;;;;;5029387;28;20052;-68
2022/05/13 10:53:05;;;;;;;0.00;0.00;;;17.90;99.90;;;;;;5009257;28;20111;-67
2022/05/13 10:55:30;;;;;;;2.83;1.15;;;17.80;99.90;;;;;;5009282;28;20046;-68
2022/05/13 10:58:21;;;;;;;0.73;0.65;;;18.10;99.90;;;;;;5012297;28;20548;-67
2022/05/13 11:00:59;;;;;;;0.40;0.40;;;18.10;99.90;;;;;;5030224;28;20048;-68
2022/05/13 11:03:36;;;;;;;0.00;0.00;;;18.20;99.90;;;;;;5022037;28;20103;-68
2022/05/13 11:06:21;;;;;;;0.10;0.10;;;18.20;99.90;;;;;;5010083;28;20112;-68
2022/05/13 11:09:16;;;;;;;0.10;0.10;;;18.20;99.90;;;;;;5009099;28;20050;-68
2022/05/13 11:11:44;;;;;;;0.00;0.00;;;18.60;99.90;;;;;;5026957;28;20103;-68
2022/05/13 11:14:40;;;;;;;0.30;0.30;;;18.40;99.90;;;;;;5023184;28;20389;-68
2022/05/13 11:17:18;;;;;;;0.57;0.57;;;18.60;99.90;;;;;;5009330;28;20164;-68
2022/05/13 11:20:02;;;;;;;0.65;0.47;;;18.80;99.90;;;;;;5009960;28;20390;-67
2022/05/13 11:22:40;;;;;;;0.22;0.20;;;18.90;99.90;;;;;;5019156;28;20547;-67
2022/05/13 11:25:57;;;;;;;0.08;0.08;;;18.70;99.90;;;;;;5031891;28;20124;-68
2022/05/13 11:29:08;;;;;;;0.20;0.20;;;18.60;99.90;;;;;;5030035;28;20042;-67
2022/05/13 11:31:44;;;;;;;9.48;1.33;;;18.40;99.90;;;;;;5030384;28;20052;-67
2022/05/13 11:34:20;;;;;;;1.17;0.98;;;18.10;99.90;;;;;;5031395;28;20405;-67
2022/05/13 11:36:54;;;;;;;0.95;0.60;;;18.60;99.90;;;;;;5030915;28;20456;-67
2022/05/13 11:39:34;;;;;;;0.40;0.40;;;19.20;99.90;;;;;;5031166;28;20055;-67
2022/05/13 11:42:18;;;;;;;0.00;0.00;;;19.50;99.90;;;;;;5032096;28;20045;-67
2022/05/13 11:45:11;;;;;;;0.00;0.00;;;19.70;99.90;;;;;;5030898;28;20600;-67
2022/05/13 11:47:45;;;;;;;0.20;0.20;;;19.50;99.90;;;;;;5028093;28;20096;-68
2022/05/13 11:50:11;;;;;;;0.00;0.00;;;19.10;99.90;;;;;;5027863;28;20401;-68
2022/05/13 11:52:43;;;;;;;0.00;0.00;;;19.10;99.90;;;;;;5032502;28;20554;-68
2022/05/13 11:55:19;;;;;;;1.98;1.80;;;18.70;99.90;;;;;;5022284;28;20175;-68
2022/05/13 11:57:53;;;;;;;0.00;0.00;;;18.60;99.90;;;;;;5026152;28;20061;-69
2022/05/13 12:00:18;;;;;;;0.35;0.35;;;18.60;99.90;;;;;;5030926;28;20519;-69
2022/05/13 12:03:00;;;;;;;0.57;0.50;;;18.60;99.90;;;;;;5031751;28;20049;-68
2022/05/13 12:05:28;;;;;;;0.05;0.05;;;18.60;99.90;;;;;;5032780;28;20056;-69
2022/05/13 12:08:02;;;;;;;1.13;0.57;;;18.40;99.90;;;;;;5032650;28;20049;-70
2022/05/13 12:10:45;;;;;;;0.03;0.03;;;18.10;99.90;;;;;;5031471;28;20049;-70
2022/05/13 12:13:26;;;;;;;0.00;0.00;;;18.40;99.90;;;;;;5017886;28;20054;-69
2022/05/13 12:16:20;;;;;;;2.03;1.85;;;18.30;99.90;;;;;;5014857;28;20120;-70
2022/05/13 12:18:58;;;;;;;0.28;0.17;;;18.20;99.90;;;;;;5011723;28;20112;-69
2022/05/13 12:21:47;;;;;;;0.40;0.40;;;18.60;99.90;;;;;;5010725;28;20045;-69
2022/05/13 12:24:13;;;;;;;0.10;0.10;;;18.70;99.90;;;;;;5011575;28;20046;-69
2022/05/13 12:26:50;;;;;;;0.00;0.00;;;19.00;99.90;;;;;;5014319;28;20442;-69
2022/05/13 12:29:31;;;;;;;0.00;0.00;;;19.00;99.90;;;;;;5011846;28;20124;-69
2022/05/13 12:31:56;;;;;;;0.10;0.10;;;18.80;99.90;;;;;;5012760;28;20053;-70
2022/05/13 12:37:36;;;;;;;3.47;0.68;;;19.40;99.90;;;;;;5031525;28;20049;-69
2022/05/13 12:40:02;;;;;;;0.00;0.00;;;19.50;99.90;;;;;;5031209;28;20064;-70
2022/05/13 12:42:46;;;;;;;2.45;1.08;;;19.60;99.90;;;;;;5023797;28;20053;-69
2022/05/13 12:45:18;;;;;;;0.00;0.00;;;19.80;99.90;;;;;;5012466;28;20054;-70
2022/05/13 12:48:20;;;;;;;0.00;0.00;;;19.60;99.90;;;;;;5014020;28;20046;-70
2022/05/13 12:51:10;;;;;;;0.10;0.10;;;19.60;99.90;;;;;;5031654;28;20083;-70
2022/05/13 12:53:43;;;;;;;0.00;0.00;;;19.80;99.90;;;;;;5025102;28;20088;-70
2022/05/13 12:56:28;;;;;;;0.00;0.00;;;19.20;99.90;;;;;;5011704;28;20052;-70
2022/05/13 12:59:11;;;;;;;3.03;0.52;;;19.50;99.90;;;;;;5014432;28;20132;-70
2022/05/13 13:01:42;;;;;;;0.00;0.00;;;19.50;99.90;;;;;;5031640;28;20055;-70
2022/05/13 13:04:09;;;;;;;0.00;0.00;;;19.60;99.90;;;;;;5029160;28;20437;-70
2022/05/13 13:06:42;;;;;;;0.08;0.08;;;19.40;99.90;;;;;;5031453;28;20496;-70
2022/05/13 13:09:16;;;;;;;0.25;0.25;;;19.30;99.90;;;;;;5029543;28;20137;-69
2022/05/13 13:12:04;;;;;;;0.38;0.38;;;19.30;99.90;;;;;;5031113;28;20079;-69
2022/05/13 13:14:47;;;;;;;0.17;0.17;;;19.50;99.90;;;;;;5020014;28;20046;-70
2022/05/13 13:17:43;;;;;;;0.10;0.10;;;18.90;99.90;;;;;;5011546;28;20046;-69
2022/05/13 13:20:13;;;;;;;0.00;0.00;;;18.60;99.90;;;;;;5010675;28;20054;-69
2022/05/13 13:22:48;;;;;;;0.00;0.00;;;18.30;99.90;;;;;;5023165;28;20064;-69
2022/05/13 13:25:29;;;;;;;0.00;0.00;;;18.40;99.90;;;;;;5030125;28;20515;-69
2022/05/13 13:28:01;;;;;;;0.00;0.00;;;18.30;99.90;;;;;;5031315;28;20140;-69
2022/05/13 13:30:28;;;;;;;3.72;1.65;;;18.20;99.90;;;;;;5016261;28;20108;-69
2022/05/13 13:32:54;;;;;;;0.10;0.10;;;18.20;99.90;;;;;;5010774;28;20050;-68